Terminal Aerodrome Forecast
Issued by NWS

Home | Current Version | Previous Version | Text Only | Print | Product List | Glossary On
Versions: 1 2 3 4 5 6 7 8 9 10 11 12 13 14 15 16 17 18 19 20 21 22 23 24 25 26 27 28 29 30
000
FTAK31 PAFA 282326
TAFABT
TAF
PABT 282326Z 2900/2924 VRB03KT 1SM -SN BR OVC019
     FM290200 VRB03KT 3SM -SN BR OVC025
     FM290600 VRB04KT 4SM -SN BR SCT025 BKN035 OVC045
     FM291500 VRB04KT P6SM VCSH SCT025 BKN035 OVC050=

USA.gov is the U.S. government's official web portal to all federal, state and local government web resources and services.